createdAt,value
2023-12-27T00:01:17.669Z,24.13
2023-12-27T00:03:50.628Z,21.75
2023-12-27T00:06:18.271Z,19.27
2023-12-27T00:08:48.151Z,18.50
2023-12-27T00:11:20.789Z,19.48
2023-12-27T00:13:51.053Z,21.23
2023-12-27T00:16:18.241Z,17.13
2023-12-27T00:18:46.145Z,23.57
2023-12-27T00:21:16.663Z,18.08
2023-12-27T00:23:46.841Z,22.58
2023-12-27T00:26:19.545Z,20.55
2023-12-27T00:28:46.531Z,19.60
2023-12-27T00:31:16.427Z,18.93
2023-12-27T00:33:46.735Z,23.17
2023-12-27T00:36:22.804Z,21.98
2023-12-27T00:38:50.217Z,22.65
2023-12-27T00:41:18.733Z,21.40
2023-12-27T00:43:48.302Z,25.93
2023-12-27T00:46:15.648Z,22.67
2023-12-27T00:48:45.094Z,18.75
2023-12-27T00:51:21.717Z,24.48
2023-12-27T00:53:50.332Z,24.75
2023-12-27T00:56:17.449Z,27.63
2023-12-27T00:58:47.598Z,22.40
2023-12-27T01:01:15.061Z,23.95
2023-12-27T01:03:45.159Z,28.45
2023-12-27T01:06:16.230Z,26.58
2023-12-27T01:08:46.527Z,27.17
2023-12-27T01:11:17.017Z,27.25
2023-12-27T01:13:47.457Z,29.20
2023-12-27T01:16:20.765Z,23.98
2023-12-27T01:18:51.110Z,27.17
2023-12-27T01:21:18.195Z,24.00
2023-12-27T01:23:45.367Z,27.67
2023-12-27T01:26:14.718Z,25.63
2023-12-27T01:28:41.648Z,26.83
2023-12-27T01:31:10.365Z,25.90
2023-12-27T01:33:41.528Z,25.73
2023-12-27T01:36:09.521Z,23.20
2023-12-27T01:38:36.621Z,23.13
2023-12-27T01:41:04.156Z,25.17
2023-12-27T01:43:31.317Z,26.85
2023-12-27T01:45:58.488Z,23.77
2023-12-27T01:48:26.005Z,25.45
2023-12-27T01:50:55.510Z,28.35
2023-12-27T01:53:23.883Z,25.60
2023-12-27T01:55:53.913Z,26.55
2023-12-27T01:58:21.159Z,30.40
2023-12-27T02:00:48.569Z,22.77
2023-12-27T02:03:16.477Z,31.25
2023-12-27T02:05:46.724Z,27.05
2023-12-27T02:08:15.535Z,26.17
2023-12-27T02:10:44.130Z,25.87
2023-12-27T02:13:11.441Z,26.75
2023-12-27T02:15:38.606Z,25.15
2023-12-27T02:18:11.307Z,24.63
2023-12-27T02:20:41.181Z,26.75
2023-12-27T02:23:11.423Z,25.97
2023-12-27T02:25:38.695Z,27.20
2023-12-27T02:28:05.904Z,24.27
2023-12-27T02:30:35.288Z,33.20
2023-12-27T02:33:02.585Z,36.25
2023-12-27T02:35:38.892Z,28.87
2023-12-27T02:38:06.286Z,28.45
2023-12-27T02:40:33.275Z,29.45
2023-12-27T02:43:00.310Z,31.17
2023-12-27T02:45:27.978Z,30.27
2023-12-27T02:47:59.733Z,31.30
2023-12-27T02:50:27.392Z,29.15
2023-12-27T02:52:54.421Z,29.73
2023-12-27T02:55:21.498Z,29.60
2023-12-27T02:57:48.887Z,29.25
2023-12-27T03:00:16.127Z,34.77
2023-12-27T03:02:45.604Z,30.70
2023-12-27T03:05:15.762Z,28.00
2023-12-27T03:07:45.135Z,34.40
2023-12-27T03:10:14.711Z,32.97
2023-12-27T03:12:41.800Z,30.77
2023-12-27T03:15:09.615Z,33.40
2023-12-27T03:17:36.996Z,30.65
2023-12-27T03:20:04.340Z,36.72
2023-12-27T03:22:31.379Z,33.13
2023-12-27T03:25:03.958Z,34.90
2023-12-27T03:27:31.210Z,26.58
2023-12-27T03:29:58.530Z,28.83
2023-12-27T03:32:28.676Z,28.65
2023-12-27T03:34:58.098Z,32.65
2023-12-27T03:37:25.477Z,31.03
2023-12-27T03:39:52.571Z,28.67
2023-12-27T03:42:19.663Z,26.00
2023-12-27T03:44:52.212Z,28.77
2023-12-27T03:47:20.016Z,25.15
2023-12-27T03:49:47.519Z,26.47
2023-12-27T03:52:20.170Z,25.58
2023-12-27T03:54:50.153Z,27.95
2023-12-27T03:57:17.420Z,30.15
2023-12-27T03:59:47.549Z,31.25
2023-12-27T04:02:17.827Z,31.53
2023-12-27T04:04:47.940Z,33.92
2023-12-27T04:07:16.888Z,28.80
2023-12-27T04:09:46.942Z,28.45
2023-12-27T04:12:17.028Z,31.05
2023-12-27T04:14:49.626Z,28.93
2023-12-27T04:17:16.804Z,35.22
2023-12-27T04:19:49.149Z,28.27
2023-12-27T04:22:22.463Z,30.77
2023-12-27T04:24:49.551Z,31.20
2023-12-27T04:27:16.856Z,30.37
2023-12-27T04:29:46.731Z,30.92
2023-12-27T04:32:17.039Z,31.20
2023-12-27T04:34:49.536Z,30.45
2023-12-27T04:37:16.488Z,32.15
2023-12-27T04:39:45.900Z,32.93
2023-12-27T04:42:15.507Z,28.67
2023-12-27T04:44:47.083Z,32.45
2023-12-27T04:47:15.561Z,29.65
2023-12-27T04:49:45.358Z,29.30
2023-12-27T04:52:14.620Z,30.20
2023-12-27T04:54:41.813Z,30.80
2023-12-27T04:57:11.056Z,30.85
2023-12-27T04:59:38.321Z,29.80
2023-12-27T05:02:06.841Z,29.50
2023-12-27T05:04:36.468Z,31.47
2023-12-27T05:07:03.383Z,29.63
2023-12-27T05:09:30.442Z,29.67
2023-12-27T05:11:57.424Z,33.67
2023-12-27T05:14:24.320Z,31.35
2023-12-27T05:16:55.035Z,31.10
2023-12-27T05:19:22.434Z,34.13
2023-12-27T05:21:49.569Z,30.42
2023-12-27T05:24:16.683Z,34.30
2023-12-27T05:26:46.566Z,27.73
2023-12-27T05:29:14.988Z,32.03
2023-12-27T05:31:42.375Z,33.45
2023-12-27T05:34:10.551Z,31.42
2023-12-27T05:36:37.865Z,32.08
2023-12-27T05:39:05.162Z,31.60
2023-12-27T05:41:32.139Z,32.30
2023-12-27T05:44:01.985Z,36.22
2023-12-27T05:46:28.984Z,30.25
2023-12-27T05:48:56.024Z,31.35
2023-12-27T05:51:22.975Z,30.70
2023-12-27T05:53:50.181Z,34.87
2023-12-27T05:56:20.030Z,28.70
2023-12-27T05:58:46.975Z,32.40
2023-12-27T06:01:17.183Z,35.65
2023-12-27T06:03:47.126Z,28.50
2023-12-27T06:06:20.085Z,31.80
2023-12-27T06:08:47.120Z,27.92
2023-12-27T06:11:17.758Z,33.97
2023-12-27T06:13:48.464Z,35.80
2023-12-27T06:16:16.104Z,30.77
2023-12-27T06:18:43.903Z,30.73
2023-12-27T06:21:11.138Z,27.92
2023-12-27T06:23:38.753Z,28.38
2023-12-27T06:26:07.734Z,29.10
2023-12-27T06:28:34.791Z,30.88
2023-12-27T06:31:02.279Z,30.00
2023-12-27T06:33:29.450Z,34.30
2023-12-27T06:35:56.727Z,34.40
2023-12-27T06:38:25.733Z,30.25
2023-12-27T06:40:52.852Z,29.70
2023-12-27T06:43:19.921Z,26.57
2023-12-27T06:45:47.377Z,26.98
2023-12-27T06:48:17.405Z,25.67
2023-12-27T06:50:50.419Z,27.42
2023-12-27T06:53:17.870Z,28.25
2023-12-27T06:55:47.825Z,27.13
2023-12-27T06:58:20.099Z,29.85
2023-12-27T07:00:47.694Z,30.15
2023-12-27T07:03:17.356Z,32.75
2023-12-27T07:05:45.293Z,22.73
2023-12-27T07:08:15.007Z,34.67
2023-12-27T07:10:46.262Z,25.50
2023-12-27T07:13:33.978Z,28.90
2023-12-27T07:16:01.098Z,27.17
2023-12-27T07:18:28.707Z,28.00
2023-12-27T07:20:55.840Z,33.57
2023-12-27T07:23:22.809Z,28.92
2023-12-27T07:25:50.025Z,28.05
2023-12-27T07:28:20.177Z,28.10
2023-12-27T07:30:47.238Z,24.25
2023-12-27T07:33:14.788Z,24.67
2023-12-27T07:35:44.284Z,29.55
2023-12-27T07:38:11.224Z,28.55
2023-12-27T07:40:40.914Z,25.00
2023-12-27T07:43:08.175Z,26.95
2023-12-27T07:45:35.285Z,23.97
2023-12-27T07:48:13.701Z,28.13
2023-12-27T07:50:40.755Z,32.15
2023-12-27T07:53:07.713Z,23.08
2023-12-27T07:55:35.022Z,23.55
2023-12-27T07:58:02.174Z,24.90
2023-12-27T08:00:31.084Z,25.88
2023-12-27T08:03:01.349Z,26.35
2023-12-27T08:05:31.501Z,25.38
2023-12-27T08:08:02.317Z,21.60
2023-12-27T08:10:29.309Z,23.13
2023-12-27T08:12:56.285Z,24.58
2023-12-27T08:15:27.043Z,25.88
2023-12-27T08:17:57.008Z,32.67
2023-12-27T08:20:25.289Z,25.15
2023-12-27T08:22:52.879Z,30.10
2023-12-27T08:25:19.959Z,25.50
2023-12-27T08:27:47.391Z,29.50
2023-12-27T08:30:17.691Z,24.23
2023-12-27T08:32:44.756Z,25.98
2023-12-27T08:35:20.140Z,27.33
2023-12-27T08:37:47.616Z,26.58
2023-12-27T08:40:15.486Z,28.45
2023-12-27T08:42:46.128Z,22.55
2023-12-27T08:45:16.492Z,20.85
2023-12-27T08:47:44.802Z,22.67
2023-12-27T08:50:12.006Z,23.60
2023-12-27T08:52:41.730Z,26.95
2023-12-27T08:55:11.410Z,21.15
2023-12-27T08:57:40.970Z,20.83
2023-12-27T09:00:08.943Z,23.00
2023-12-27T09:02:36.029Z,23.45
2023-12-27T09:05:02.948Z,21.63
2023-12-27T09:07:33.625Z,19.85
2023-12-27T09:10:00.933Z,21.55
2023-12-27T09:12:27.953Z,19.63
2023-12-27T09:14:55.635Z,22.50
2023-12-27T09:17:24.922Z,21.88
2023-12-27T09:19:52.140Z,21.23
2023-12-27T09:22:20.040Z,22.50
2023-12-27T09:24:47.223Z,22.53
2023-12-27T09:27:17.165Z,22.60
2023-12-27T09:29:47.357Z,22.13
2023-12-27T09:32:20.885Z,18.85
2023-12-27T09:34:48.229Z,21.20
2023-12-27T09:37:15.346Z,20.20
2023-12-27T09:39:44.500Z,20.02
2023-12-27T09:42:16.033Z,21.27
2023-12-27T09:44:47.632Z,20.50
2023-12-27T09:47:17.267Z,20.52
2023-12-27T09:49:48.449Z,27.93
2023-12-27T09:52:16.414Z,24.27
2023-12-27T09:54:46.486Z,23.70
2023-12-27T09:57:17.214Z,22.55
2023-12-27T09:59:49.188Z,25.20
2023-12-27T10:02:20.201Z,22.93
2023-12-27T10:05:02.782Z,20.95
2023-12-27T10:07:31.332Z,19.15
2023-12-27T10:10:07.882Z,25.02
2023-12-27T10:12:47.563Z,22.08
2023-12-27T10:15:16.069Z,23.67
2023-12-27T10:17:44.010Z,23.20
2023-12-27T10:20:34.443Z,24.77
2023-12-27T10:23:01.990Z,23.23
2023-12-27T10:25:29.122Z,22.98
2023-12-27T10:27:59.817Z,21.57
2023-12-27T10:30:27.381Z,21.83
2023-12-27T10:33:06.874Z,22.50
2023-12-27T10:35:34.502Z,24.20
2023-12-27T10:38:08.324Z,22.08
2023-12-27T10:40:39.030Z,22.07
2023-12-27T10:43:06.064Z,22.80
2023-12-27T10:45:33.996Z,21.70
2023-12-27T10:48:06.342Z,20.73
2023-12-27T10:50:36.796Z,20.65
2023-12-27T10:53:05.809Z,25.33
2023-12-27T10:55:36.581Z,24.42
2023-12-27T10:58:07.440Z,25.27
2023-12-27T11:00:37.498Z,24.60
2023-12-27T11:03:06.105Z,25.77
2023-12-27T11:05:38.575Z,21.77
2023-12-27T11:08:10.582Z,21.67
2023-12-27T11:10:40.087Z,22.10
2023-12-27T11:13:10.145Z,22.17
2023-12-27T11:15:38.371Z,25.77
2023-12-27T11:18:08.025Z,25.37
2023-12-27T11:20:37.995Z,24.42
2023-12-27T11:23:08.175Z,22.80
2023-12-27T11:25:36.194Z,22.10
2023-12-27T11:28:04.271Z,22.67
2023-12-27T11:30:37.353Z,20.83
2023-12-27T11:33:04.933Z,23.13
2023-12-27T11:35:34.512Z,21.67
2023-12-27T11:38:20.249Z,20.20
2023-12-27T11:40:58.172Z,21.15
2023-12-27T11:43:27.145Z,21.10
2023-12-27T11:45:59.967Z,21.83
2023-12-27T11:48:29.017Z,21.08
2023-12-27T11:50:56.923Z,22.25
2023-12-27T11:53:27.396Z,18.92
2023-12-27T11:55:54.759Z,21.37
2023-12-27T11:58:35.013Z,19.25
2023-12-27T12:01:21.561Z,17.98
2023-12-27T12:04:02.998Z,22.05
2023-12-27T12:06:45.974Z,18.40
2023-12-27T12:09:17.017Z,17.77
2023-12-27T12:11:45.233Z,18.45
2023-12-27T12:14:15.197Z,18.17
2023-12-27T12:16:45.286Z,17.80
2023-12-27T12:19:15.675Z,17.50
2023-12-27T12:21:43.730Z,16.30
2023-12-27T12:24:11.208Z,16.05
2023-12-27T12:26:38.267Z,19.25
2023-12-27T12:29:07.648Z,16.60
2023-12-27T12:31:37.237Z,14.10
2023-12-27T12:34:04.537Z,14.77
2023-12-27T12:36:34.909Z,18.38
2023-12-27T12:39:05.671Z,18.05
2023-12-27T12:41:33.646Z,15.27
2023-12-27T12:44:00.881Z,15.93
2023-12-27T12:46:28.159Z,16.90
2023-12-27T12:48:55.604Z,18.40
2023-12-27T12:51:22.803Z,18.02
2023-12-27T12:53:49.727Z,13.38
2023-12-27T12:56:17.218Z,14.07
2023-12-27T12:58:48.107Z,13.90
2023-12-27T13:01:18.194Z,18.10
2023-12-27T13:03:47.758Z,14.82
2023-12-27T13:06:18.977Z,15.90
2023-12-27T13:08:52.997Z,17.73
2023-12-27T13:11:20.577Z,16.93
2023-12-27T13:13:48.301Z,15.05
2023-12-27T13:16:15.367Z,15.52
2023-12-27T13:18:44.716Z,16.88
2023-12-27T13:21:13.490Z,16.35
2023-12-27T13:23:41.937Z,14.87
2023-12-27T13:26:11.515Z,19.30
2023-12-27T13:28:38.861Z,14.15
2023-12-27T13:31:05.973Z,13.70
2023-12-27T13:33:33.215Z,15.43
2023-12-27T13:36:00.640Z,15.63
2023-12-27T13:38:27.646Z,17.98
2023-12-27T13:40:54.607Z,15.63
2023-12-27T13:43:21.984Z,14.63
2023-12-27T13:45:49.026Z,17.42
2023-12-27T13:48:19.303Z,18.90
2023-12-27T13:50:53.207Z,14.80
2023-12-27T13:53:20.156Z,17.13
2023-12-27T13:55:47.160Z,19.52
2023-12-27T13:58:17.231Z,17.02
2023-12-27T14:00:47.411Z,21.63
2023-12-27T14:03:18.081Z,14.63
2023-12-27T14:05:48.237Z,16.10
2023-12-27T14:08:15.492Z,17.05
2023-12-27T14:10:45.139Z,18.25
2023-12-27T14:13:14.854Z,16.70
2023-12-27T14:15:42.567Z,16.08
2023-12-27T14:18:16.075Z,16.15
2023-12-27T14:20:44.156Z,15.95
2023-12-27T14:23:18.663Z,15.98
2023-12-27T14:25:46.495Z,18.97
2023-12-27T14:28:16.342Z,15.35
2023-12-27T14:30:45.803Z,14.63
2023-12-27T14:33:15.460Z,16.83
2023-12-27T14:35:45.027Z,14.05
2023-12-27T14:38:18.363Z,16.20
2023-12-27T14:40:45.407Z,17.75
2023-12-27T14:43:16.422Z,14.77
2023-12-27T14:45:51.353Z,19.77
2023-12-27T14:48:18.887Z,13.18
2023-12-27T14:50:46.260Z,18.23
2023-12-27T14:53:15.968Z,15.48
2023-12-27T14:55:46.814Z,16.02
2023-12-27T14:58:17.061Z,18.52
2023-12-27T15:00:47.920Z,14.35
2023-12-27T15:03:21.597Z,14.17
2023-12-27T15:05:50.159Z,13.52
2023-12-27T15:08:20.991Z,13.25
2023-12-27T15:10:48.552Z,17.05
2023-12-27T15:13:18.928Z,14.82
2023-12-27T15:15:51.661Z,18.33
2023-12-27T15:18:22.523Z,18.73
2023-12-27T15:20:52.452Z,14.65
2023-12-27T15:23:26.400Z,12.50
2023-12-27T15:25:57.603Z,13.60
2023-12-27T15:28:24.878Z,15.63
2023-12-27T15:30:57.786Z,15.00
2023-12-27T15:33:25.384Z,16.33
2023-12-27T15:35:58.008Z,13.35
2023-12-27T15:38:25.644Z,14.57
2023-12-27T15:40:53.381Z,14.20
2023-12-27T15:43:25.897Z,16.42
2023-12-27T15:45:54.958Z,17.00
2023-12-27T15:48:26.001Z,15.25
2023-12-27T15:50:53.393Z,13.27
2023-12-27T15:53:20.527Z,12.53
2023-12-27T15:55:47.473Z,11.98
2023-12-27T15:58:17.753Z,16.15
2023-12-27T16:00:54.163Z,13.50
2023-12-27T16:03:21.698Z,13.05
2023-12-27T16:05:51.775Z,16.50
2023-12-27T16:08:26.336Z,18.17
2023-12-27T16:10:53.986Z,12.43
2023-12-27T16:13:24.041Z,13.02
2023-12-27T16:15:53.372Z,17.17
2023-12-27T16:18:23.434Z,11.70
2023-12-27T16:20:50.810Z,14.75
2023-12-27T16:23:19.123Z,11.60
2023-12-27T16:25:48.936Z,12.27
2023-12-27T16:28:16.375Z,11.73
2023-12-27T16:30:48.550Z,12.37
2023-12-27T16:33:19.957Z,13.13
2023-12-27T16:35:47.026Z,13.43
2023-12-27T16:38:38.361Z,13.23
2023-12-27T16:41:30.836Z,14.30
2023-12-27T16:44:01.338Z,10.93
2023-12-27T16:46:31.124Z,13.18
2023-12-27T16:49:07.326Z,11.45
2023-12-27T16:51:43.029Z,14.98
2023-12-27T16:54:24.881Z,14.73
2023-12-27T16:56:55.529Z,15.73
2023-12-27T16:59:26.390Z,13.13
2023-12-27T17:01:58.387Z,10.85
2023-12-27T17:04:27.018Z,10.43
2023-12-27T17:06:57.188Z,10.80
2023-12-27T17:09:26.853Z,11.23
2023-12-27T17:11:56.762Z,12.50
2023-12-27T17:14:30.123Z,11.07
2023-12-27T17:16:58.720Z,11.48
2023-12-27T17:19:30.333Z,8.90
2023-12-27T17:21:59.789Z,9.60
2023-12-27T17:24:31.685Z,10.05
2023-12-27T17:26:59.600Z,13.88
2023-12-27T17:29:30.133Z,9.27
2023-12-27T17:32:00.250Z,10.10
2023-12-27T17:34:30.001Z,10.67
2023-12-27T17:36:58.006Z,12.07
2023-12-27T17:39:28.243Z,9.35
2023-12-27T17:42:01.500Z,10.70
2023-12-27T17:44:28.716Z,9.65
2023-12-27T17:46:56.269Z,9.70
2023-12-27T17:49:31.557Z,11.75
2023-12-27T17:51:58.736Z,10.45
2023-12-27T17:54:26.413Z,11.32
2023-12-27T17:56:53.649Z,9.10
2023-12-27T17:59:20.870Z,9.53
2023-12-27T18:01:51.916Z,8.77
2023-12-27T18:04:19.066Z,11.05
2023-12-27T18:06:48.771Z,8.38
2023-12-27T18:09:19.158Z,12.82
2023-12-27T18:11:46.331Z,9.80
2023-12-27T18:14:16.509Z,12.85
2023-12-27T18:16:57.686Z,7.95
2023-12-27T18:19:24.895Z,8.77
2023-12-27T18:21:52.417Z,7.25
2023-12-27T18:24:20.486Z,8.40
2023-12-27T18:26:49.800Z,11.13
2023-12-27T18:29:17.321Z,8.13
2023-12-27T18:31:49.599Z,12.68
2023-12-27T18:34:20.414Z,8.95
2023-12-27T18:36:50.435Z,8.30
2023-12-27T18:39:18.791Z,10.52
2023-12-27T18:41:49.266Z,10.65
2023-12-27T18:44:26.380Z,13.07
2023-12-27T18:47:04.196Z,8.75
2023-12-27T18:49:34.839Z,10.73
2023-12-27T18:52:02.372Z,7.88
2023-12-27T18:54:32.352Z,9.70
2023-12-27T18:56:59.516Z,9.55
2023-12-27T18:59:39.179Z,7.78
2023-12-27T19:02:21.733Z,10.40
2023-12-27T19:04:49.859Z,11.00
2023-12-27T19:07:17.294Z,8.65
2023-12-27T19:09:47.249Z,9.20
2023-12-27T19:12:17.512Z,9.32
2023-12-27T19:14:48.105Z,7.93
2023-12-27T19:17:20.647Z,9.05
2023-12-27T19:19:50.940Z,11.68
2023-12-27T19:22:19.861Z,9.45
2023-12-27T19:24:47.054Z,9.77
2023-12-27T19:27:17.271Z,6.90
2023-12-27T19:29:47.564Z,10.02
2023-12-27T19:32:20.841Z,7.20
2023-12-27T19:34:51.264Z,8.73
2023-12-27T19:37:26.429Z,11.55
2023-12-27T19:40:24.643Z,8.27
2023-12-27T19:43:06.260Z,10.57
2023-12-27T19:45:33.725Z,7.97
2023-12-27T19:48:04.020Z,10.00
2023-12-27T19:50:31.427Z,8.73
2023-12-27T19:52:58.851Z,8.33
2023-12-27T19:55:34.854Z,7.95
2023-12-27T19:58:02.697Z,7.38
2023-12-27T20:00:31.024Z,8.98
2023-12-27T20:03:00.353Z,7.25
2023-12-27T20:05:28.423Z,9.00
2023-12-27T20:08:01.120Z,10.85
2023-12-27T20:10:30.916Z,8.65
2023-12-27T20:13:02.298Z,7.88
2023-12-27T20:15:29.900Z,8.93
2023-12-27T20:17:59.685Z,9.50
2023-12-27T20:20:29.731Z,9.65
2023-12-27T20:23:01.552Z,8.93
2023-12-27T20:25:33.405Z,11.32
2023-12-27T20:28:05.436Z,20.02
2023-12-27T20:30:32.702Z,8.00
2023-12-27T20:33:00.009Z,7.82
2023-12-27T20:35:27.273Z,10.50
2023-12-27T20:37:54.438Z,10.60
2023-12-27T20:40:21.572Z,9.00
2023-12-27T20:42:52.391Z,10.33
2023-12-27T20:45:23.042Z,10.10
2023-12-27T20:47:50.785Z,8.95
2023-12-27T20:50:18.068Z,9.55
2023-12-27T20:52:57.669Z,9.40
2023-12-27T20:55:24.960Z,8.40
2023-12-27T20:57:54.522Z,8.38
2023-12-27T21:00:22.048Z,8.18
2023-12-27T21:02:52.916Z,9.90
2023-12-27T21:05:35.104Z,9.90
2023-12-27T21:08:16.473Z,12.00
2023-12-27T21:10:46.155Z,8.65
2023-12-27T21:13:19.878Z,9.25
2023-12-27T21:15:50.080Z,11.07
2023-12-27T21:18:31.237Z,9.32
2023-12-27T21:21:06.064Z,9.50
2023-12-27T21:23:40.236Z,8.52
2023-12-27T21:26:23.807Z,9.43
2023-12-27T21:28:54.790Z,7.60
2023-12-27T21:31:24.489Z,8.45
2023-12-27T21:33:53.081Z,11.90
2023-12-27T21:36:33.732Z,9.88
2023-12-27T21:39:02.640Z,12.30
2023-12-27T21:41:41.845Z,8.98
2023-12-27T21:44:10.449Z,9.57
2023-12-27T21:46:42.533Z,9.57
2023-12-27T21:49:21.756Z,9.98
2023-12-27T21:51:51.444Z,8.27
2023-12-27T21:54:21.980Z,8.43
2023-12-27T21:56:58.595Z,9.45
2023-12-27T21:59:26.396Z,9.20
2023-12-27T22:01:59.581Z,7.97
2023-12-27T22:04:29.395Z,8.50
2023-12-27T22:07:08.357Z,8.82
2023-12-27T22:09:37.044Z,8.88
2023-12-27T22:14:46.035Z,9.25
2023-12-27T22:17:14.515Z,10.82
2023-12-27T22:19:41.677Z,10.80
2023-12-27T22:22:09.061Z,9.18
2023-12-27T22:24:38.309Z,7.83
2023-12-27T22:27:05.781Z,11.32
2023-12-27T22:29:33.517Z,9.10
2023-12-27T22:32:00.617Z,9.60
2023-12-27T22:34:30.379Z,10.30
2023-12-27T22:36:57.913Z,12.53
2023-12-27T22:39:24.973Z,10.10
2023-12-27T22:41:55.041Z,10.48
2023-12-27T22:44:22.850Z,10.18
2023-12-27T22:46:49.832Z,9.65
2023-12-27T22:49:17.220Z,8.70
2023-12-27T22:51:50.050Z,10.02
2023-12-27T22:54:17.386Z,9.55
2023-12-27T22:56:45.477Z,9.48
2023-12-27T22:59:12.516Z,11.40
2023-12-27T23:01:42.876Z,10.07
2023-12-27T23:04:13.029Z,9.68
2023-12-27T23:06:50.640Z,9.55
2023-12-27T23:09:20.632Z,9.77
2023-12-27T23:11:52.233Z,9.18
2023-12-27T23:14:21.873Z,11.03
2023-12-27T23:16:48.996Z,11.68
2023-12-27T23:19:16.390Z,8.93
2023-12-27T23:21:46.461Z,9.63
2023-12-27T23:24:16.841Z,11.32
2023-12-27T23:26:49.402Z,9.10
2023-12-27T23:29:16.519Z,9.00
2023-12-27T23:31:50.973Z,9.10
2023-12-27T23:34:21.422Z,11.40
2023-12-27T23:36:50.939Z,9.55
2023-12-27T23:39:18.166Z,10.67
2023-12-27T23:41:55.113Z,10.27
2023-12-27T23:44:24.768Z,9.40
2023-12-27T23:46:54.561Z,9.32
2023-12-27T23:49:22.117Z,8.68
2023-12-27T23:51:49.431Z,9.37
2023-12-27T23:54:16.989Z,13.60
2023-12-27T23:56:46.824Z,12.55
2023-12-27T23:59:15.394Z,11.43
